Thursday, January 18, 2018, 8:57 PM EST
Back to Local

KGFL, Floyd Bennett Memorial Airport

Location: Queensbury, NY, United States Lat: 43.333
Local Time: 8:57 PM EST ( 1:57 GMT) Lon: -73.617
Time Zone: US/Eastern Elev: 328 ft

Show me the last for .
Show Decoded

2018-01-18 19:53 METAR KGFL 190053Z AUTO 00000KT 10SM OVC039 M07/M09 A2997 RMK AO2 SLP164
                 T10671089 =
2018-01-18 18:53 METAR KGFL 182353Z AUTO 22004KT 10SM OVC040 M07/M09 A2997 RMK AO2 SLP163
                 T10671094 11056 21072 53006 =
2018-01-18 17:53 METAR KGFL 182253Z AUTO 00000KT 10SM OVC040 M07/M09 A2996 RMK AO2 SLP160
                 T10671089 =
2018-01-18 16:53 METAR KGFL 182153Z AUTO 00000KT 10SM OVC040 M06/M09 A2995 RMK AO2 SLP156
                 T10611094 =
2018-01-18 15:53 METAR KGFL 182053Z AUTO 00000KT 10SM OVC042 M06/M09 A2995 RMK AO2 SLP155
                 T10561094 55007 =
2018-01-18 14:53 METAR KGFL 181953Z AUTO 16004KT 10SM OVC038 M06/M09 A2994 RMK AO2 SLP154
                 T10561094 =
2018-01-18 13:53 METAR KGFL 181853Z AUTO 19005KT 10SM OVC040 M06/M09 A2995 RMK AO2 SLP157
                 T10561094 =
2018-01-18 12:53 METAR KGFL 181753Z AUTO 17006KT 10SM OVC039 M07/M09 A2997 RMK AO2 SLP162 6////
                 T10671094 11067 21228 56026 =
2018-01-18 11:53 METAR KGFL 181653Z AUTO 16006KT 9SM CLR M09/M11 A2999 RMK AO2 SLP171 T10891111 =
2018-01-18 10:53 METAR KGFL 181553Z AUTO 17005KT 9SM SCT034 M11/M13 A3002 RMK AO2 SLP181
                 T11111128 PNO $ =
2018-01-18 09:53 METAR KGFL 181453Z AUTO 00000KT 4SM BR OVC031 M13/M14 A3005 RMK AO2 SLP190
                 T11331139 53002 =
2018-01-18 08:53 METAR KGFL 181353Z AUTO 00000KT 6SM BR BKN030 M18/M19 A3004 RMK AO2 SLP186
                 T11831194 =
2018-01-18 08:38 METAR KGFL 181338Z AUTO 00000KT 4SM BR SCT030 M19/M21 A3003 RMK AO2 T11941206 =
2018-01-18 08:29 METAR KGFL 181329Z AUTO 00000KT 1 3/4SM BR FEW028 M20/M21 A3003 RMK AO2
                 T12001211 =
2018-01-18 07:53 METAR KGFL 181253Z AUTO 00000KT 5SM BR CLR M21/M23 A3004 RMK AO2 SLP188
                 T12111228 =
2018-01-18 07:51 METAR KGFL 181251Z AUTO 00000KT 3SM BR CLR M21/M23 A3004 RMK AO2 =
2018-01-18 07:40 METAR KGFL 181240Z AUTO 00000KT 1 3/4SM BR FEW007 M22/M23 A3004 RMK AO2
                 T12171233 =
2018-01-18 07:26 METAR KGFL 181226Z AUTO 00000KT 7SM FEW007 M22/M24 A3003 RMK AO2 T12221239 =
2018-01-18 06:53 METAR KGFL 181153Z AUTO 00000KT 7SM CLR M21/M22 A3004 RMK AO2 SLP188 70001 I6000
                 T12061222 11128 21222 58013 =
2018-01-18 05:53 METAR KGFL 181053Z AUTO 00000KT 7SM CLR M21/M22 A3006 RMK AO2 SLP194 I1000
                 T12061222 =
2018-01-18 04:53 METAR KGFL 180953Z AUTO 00000KT 6SM BR CLR M20/M21 A3007 RMK AO2 SLP196
                 T12001211 =
2018-01-18 03:53 METAR KGFL 180853Z AUTO 02003KT 5SM BR CLR M19/M20 A3008 RMK AO2 SLP200 I1000
                 I3000 T11891200 56005 =
2018-01-18 02:53 METAR KGFL 180753Z AUTO 00000KT 6SM BR CLR M18/M19 A3008 RMK AO2 SLP201 I1000
                 T11831189 =
2018-01-18 01:53 METAR KGFL 180653Z AUTO 16003KT 7SM CLR M14/M15 A3008 RMK AO2 SLP199 I1000
                 T11441150 =
2018-01-18 00:53 METAR KGFL 180553Z AUTO 19004KT 8SM CLR M13/M14 A3009 RMK AO2 SLP203 I1000 I6000
                 T11281139 11050 21144 58017 =
2018-01-17 23:53 METAR KGFL 180453Z AUTO 23006KT 9SM CLR M13/M14 A3012 RMK AO2 SLP212 T11331139
                 410221133 =
2018-01-17 22:53 METAR KGFL 180353Z AUTO 21007KT 10SM CLR M11/M13 A3013 RMK AO2 SLP216 T11111128
                 =
2018-01-17 21:53 METAR KGFL 180253Z AUTO 23006KT 10SM CLR M09/M12 A3015 RMK AO2 SLP219 T10891117
                 58012 =

Support USWX by starting your Amazon purchase here.